createdAt,value
2019-01-09T00:33:08.423Z,61.1
2019-01-09T00:33:58.128Z,61.1
2019-01-09T00:34:48.707Z,61.1
2019-01-09T00:35:41.223Z,61.1
2019-01-09T00:36:28.823Z,61.1
2019-01-09T00:37:18.047Z,61.1
2019-01-09T00:38:08.670Z,61
2019-01-09T00:38:58.738Z,61.1
2019-01-09T00:39:48.500Z,61
2019-01-09T00:40:38.556Z,61
2019-01-09T00:41:29.492Z,61
2019-01-09T00:42:18.724Z,61
2019-01-09T00:43:09.360Z,61
2019-01-09T00:43:59.048Z,61
2019-01-09T00:44:49.370Z,61
2019-01-09T00:45:39.434Z,60.9
2019-01-09T00:46:29.499Z,60.9
2019-01-09T00:47:18.692Z,60.9
2019-01-09T00:48:09.875Z,60.9
2019-01-09T00:48:58.837Z,60.9
2019-01-09T00:49:49.184Z,60.9
2019-01-09T00:50:38.670Z,60.9
2019-01-09T00:51:29.284Z,60.9
2019-01-09T00:52:19.877Z,60.9
2019-01-09T00:53:09.389Z,60.9
2019-01-09T00:53:59.713Z,60.9
2019-01-09T00:54:49.806Z,60.9
2019-01-09T00:55:39.313Z,60.9
2019-01-09T00:56:29.891Z,60.9
2019-01-09T00:57:19.676Z,60.9
2019-01-09T00:58:10.624Z,60.9
2019-01-09T00:58:59.296Z,60.9
2019-01-09T00:59:50.116Z,60.9
2019-01-09T01:00:39.983Z,60.9
2019-01-09T01:01:29.948Z,60.8
2019-01-09T01:02:20.659Z,60.8
2019-01-09T01:03:10.154Z,60.8
2019-01-09T01:04:00.793Z,60.8
2019-01-09T01:04:50.461Z,60.8
2019-01-09T01:05:49.150Z,60.8
2019-01-09T01:06:29.993Z,60.8
2019-01-09T01:07:20.620Z,60.8
2019-01-09T01:08:10.966Z,60.8
2019-01-09T01:09:00.523Z,60.8
2019-01-09T01:09:51.390Z,60.8
2019-01-09T01:10:41.388Z,60.8
2019-01-09T01:11:30.888Z,60.8
2019-01-09T01:12:21.045Z,60.8
2019-01-09T01:13:10.485Z,60.8
2019-01-09T01:14:01.323Z,60.8
2019-01-09T01:14:50.900Z,60.8
2019-01-09T01:15:40.885Z,60.7
2019-01-09T01:16:31.508Z,60.7
2019-01-09T01:17:21.030Z,60.7
2019-01-09T01:18:11.719Z,60.7
2019-01-09T01:19:01.677Z,60.7
2019-01-09T01:19:51.834Z,60.7
2019-01-09T01:20:41.794Z,60.7
2019-01-09T01:21:31.282Z,60.7
2019-01-09T01:22:21.170Z,60.6
2019-01-09T01:23:11.604Z,60.6
2019-01-09T01:24:01.472Z,60.6
2019-01-09T01:24:51.519Z,60.6
2019-01-09T01:25:41.872Z,60.6
2019-01-09T01:26:31.364Z,60.6
2019-01-09T01:27:21.728Z,60.6
2019-01-09T01:28:12.295Z,60.6
2019-01-09T01:29:01.798Z,60.6
2019-01-09T01:29:51.847Z,60.6
2019-01-09T01:30:42.182Z,60.6
2019-01-09T01:31:32.524Z,60.6
2019-01-09T01:32:22.277Z,60.6
2019-01-09T01:33:12.366Z,60.6
2019-01-09T01:34:02.704Z,60.6
2019-01-09T01:34:53.105Z,60.6
2019-01-09T01:35:42.794Z,60.5
2019-01-09T01:36:32.094Z,60.6
2019-01-09T01:37:22.354Z,60.5
2019-01-09T01:38:12.974Z,60.5
2019-01-09T01:39:02.763Z,60.5
2019-01-09T01:39:53.366Z,60.5
2019-01-09T01:40:42.836Z,60.5
2019-01-09T01:41:33.181Z,60.5
2019-01-09T01:42:23.516Z,60.5
2019-01-09T01:43:13.028Z,60.5
2019-01-09T01:44:03.636Z,60.5
2019-01-09T01:44:53.678Z,60.5
2019-01-09T01:45:43.286Z,60.4
2019-01-09T01:46:32.765Z,60.4
2019-01-09T01:47:23.283Z,60.4
2019-01-09T01:48:13.075Z,60.4
2019-01-09T01:49:03.421Z,60.4
2019-01-09T01:49:54.033Z,60.4
2019-01-09T01:50:43.821Z,60.4
2019-01-09T01:51:33.858Z,60.4
2019-01-09T01:52:24.178Z,60.4
2019-01-09T01:53:13.493Z,60.4
2019-01-09T01:54:03.565Z,60.4
2019-01-09T01:54:54.102Z,60.4
2019-01-09T01:55:44.418Z,60.4
2019-01-09T01:56:34.235Z,60.4
2019-01-09T01:57:24.241Z,60.4
2019-01-09T01:58:13.767Z,60.4
2019-01-09T01:59:04.743Z,60.4
2019-01-09T01:59:54.503Z,60.3
2019-01-09T02:00:43.930Z,60.3
2019-01-09T02:01:34.807Z,60.3
2019-01-09T02:02:24.698Z,60.3
2019-01-09T02:03:14.377Z,60.3
2019-01-09T02:04:04.142Z,60.3
2019-01-09T02:04:54.751Z,60.3
2019-01-09T02:05:43.967Z,60.3
2019-01-09T02:06:34.570Z,60.3
2019-01-09T02:07:24.897Z,60.3
2019-01-09T02:08:15.240Z,60.3
2019-01-09T02:09:04.207Z,60.3
2019-01-09T02:09:55.365Z,60.3
2019-01-09T02:10:45.224Z,60.3
2019-01-09T02:11:34.104Z,60.3
2019-01-09T02:12:24.967Z,60.4
2019-01-09T02:13:14.744Z,60.5
2019-01-09T02:14:05.361Z,60.6
2019-01-09T02:14:55.144Z,60.8
2019-01-09T02:15:45.492Z,60.9
2019-01-09T02:16:35.526Z,61.1
2019-01-09T02:17:24.766Z,61.3
2019-01-09T02:18:15.394Z,61.5
2019-01-09T02:19:05.709Z,61.7
2019-01-09T02:19:55.504Z,61.8
2019-01-09T02:20:45.546Z,61.9
2019-01-09T02:21:35.989Z,62.1
2019-01-09T02:22:26.206Z,62.3
2019-01-09T02:23:15.701Z,62.4
2019-01-09T02:24:06.034Z,62.6
2019-01-09T02:24:55.919Z,62.6
2019-01-09T02:25:45.323Z,62.8
2019-01-09T02:26:35.941Z,62.8
2019-01-09T02:27:25.791Z,62.8
2019-01-09T02:28:16.316Z,62.8
2019-01-09T02:29:06.103Z,62.8
2019-01-09T02:29:55.606Z,62.8
2019-01-09T02:30:45.658Z,62.8
2019-01-09T02:31:36.681Z,62.8
2019-01-09T02:32:25.774Z,62.8
2019-01-09T02:33:16.752Z,62.8
2019-01-09T02:34:07.070Z,62.8
2019-01-09T02:34:56.510Z,62.9
2019-01-09T02:35:46.321Z,62.9
2019-01-09T02:36:36.625Z,63
2019-01-09T02:37:26.518Z,63.1
2019-01-09T02:38:17.057Z,63.1
2019-01-09T02:39:07.441Z,63.1
2019-01-09T02:39:57.125Z,63.1
2019-01-09T02:40:47.476Z,63.1
2019-01-09T02:41:36.956Z,63.1
2019-01-09T02:42:27.003Z,63.1
2019-01-09T02:43:16.780Z,63.1
2019-01-09T02:44:07.392Z,63.1
2019-01-09T02:44:57.760Z,63.1
2019-01-09T02:45:46.962Z,63.1
2019-01-09T02:46:37.308Z,63.3
2019-01-09T02:47:27.971Z,63.4
2019-01-09T02:48:17.472Z,63.4
2019-01-09T02:49:07.766Z,63.4
2019-01-09T02:49:56.966Z,63.5
2019-01-09T02:50:47.697Z,63.5
2019-01-09T02:51:36.530Z,63.5
2019-01-09T02:52:28.025Z,63.5
2019-01-09T02:53:18.022Z,63.6
2019-01-09T02:54:07.554Z,63.5
2019-01-09T02:54:58.430Z,63.5
2019-01-09T02:55:47.962Z,63.5
2019-01-09T02:56:37.972Z,63.5
2019-01-09T02:57:28.554Z,63.5
2019-01-09T02:58:18.608Z,63.5
2019-01-09T02:59:08.335Z,63.5
2019-01-09T02:59:58.744Z,63.6
2019-01-09T03:00:48.536Z,63.7
2019-01-09T03:01:38.091Z,63.8
2019-01-09T03:02:28.648Z,63.8
2019-01-09T03:03:18.141Z,63.8
2019-01-09T03:04:08.793Z,63.8
2019-01-09T03:04:59.066Z,63.8
2019-01-09T03:05:48.036Z,63.8
2019-01-09T03:06:38.909Z,63.8
2019-01-09T03:07:29.003Z,63.8
2019-01-09T03:08:19.447Z,63.8
2019-01-09T03:09:08.612Z,63.8
2019-01-09T03:09:58.879Z,63.8
2019-01-09T03:10:49.452Z,63.8
2019-01-09T03:11:39.287Z,63.8
2019-01-09T03:12:29.314Z,63.8
2019-01-09T03:13:19.085Z,63.8
2019-01-09T03:14:09.466Z,63.9
2019-01-09T03:14:59.202Z,63.9
2019-01-09T03:15:49.335Z,64
2019-01-09T03:16:39.494Z,63.9
2019-01-09T03:17:28.591Z,63.9
2019-01-09T03:18:19.148Z,64
2019-01-09T03:19:09.468Z,64
2019-01-09T03:19:59.921Z,64
2019-01-09T03:20:50.010Z,64
2019-01-09T03:21:39.924Z,63.9
2019-01-09T03:22:29.403Z,63.9
2019-01-09T03:23:19.840Z,63.9
2019-01-09T03:24:09.433Z,63.9
2019-01-09T03:24:59.696Z,63.9
2019-01-09T03:25:50.224Z,63.9
2019-01-09T03:26:40.066Z,63.9
2019-01-09T03:27:29.492Z,63.9
2019-01-09T03:28:20.359Z,63.9
2019-01-09T03:29:10.152Z,63.9
2019-01-09T03:29:59.910Z,63.9
2019-01-09T03:30:50.129Z,63.9
2019-01-09T03:31:40.235Z,63.9
2019-01-09T03:32:30.921Z,63.9
2019-01-09T03:33:21.000Z,63.9
2019-01-09T03:34:10.747Z,63.9
2019-01-09T03:35:00.768Z,63.9
2019-01-09T03:35:51.140Z,63.9
2019-01-09T03:36:40.096Z,63.9
2019-01-09T03:37:30.149Z,63.9
2019-01-09T03:38:20.748Z,63.9
2019-01-09T03:39:10.829Z,63.9
2019-01-09T03:40:01.219Z,63.9
2019-01-09T03:40:50.929Z,63.9
2019-01-09T03:41:40.946Z,63.9
2019-01-09T03:42:30.746Z,63.9
2019-01-09T03:43:20.591Z,63.9
2019-01-09T03:44:10.946Z,63.9
2019-01-09T03:45:01.344Z,63.9
2019-01-09T03:45:51.243Z,63.9
2019-01-09T03:46:42.021Z,63.9
2019-01-09T03:47:31.386Z,63.9
2019-01-09T03:48:21.162Z,63.9
2019-01-09T03:49:11.178Z,63.8
2019-01-09T03:50:01.220Z,63.8
2019-01-09T03:50:51.298Z,63.9
2019-01-09T03:51:41.623Z,63.8
2019-01-09T03:52:31.819Z,63.8
2019-01-09T03:53:21.939Z,63.8
2019-01-09T03:54:12.086Z,63.8
2019-01-09T03:55:02.141Z,63.8
2019-01-09T03:55:51.712Z,63.8
2019-01-09T03:56:41.728Z,63.8
2019-01-09T03:57:32.318Z,63.8
2019-01-09T03:58:21.833Z,63.8
2019-01-09T03:59:11.981Z,63.8
2019-01-09T04:00:02.414Z,63.8
2019-01-09T04:00:52.556Z,63.8
2019-01-09T04:01:42.065Z,63.8
2019-01-09T04:02:32.384Z,63.8
2019-01-09T04:03:24.292Z,63.8
2019-01-09T04:04:13.127Z,63.8
2019-01-09T04:05:03.260Z,63.8
2019-01-09T04:05:53.140Z,63.8
2019-01-09T04:06:45.800Z,63.8
2019-01-09T04:07:31.887Z,63.8
2019-01-09T04:08:23.015Z,63.7
2019-01-09T04:09:13.156Z,63.7
2019-01-09T04:10:03.564Z,63.7
2019-01-09T04:10:53.014Z,63.7
2019-01-09T04:11:42.425Z,63.7
2019-01-09T04:12:33.122Z,63.7
2019-01-09T04:13:22.321Z,63.7
2019-01-09T04:14:13.262Z,63.7
2019-01-09T04:15:03.683Z,63.7
2019-01-09T04:15:52.995Z,63.7
2019-01-09T04:16:43.490Z,63.6
2019-01-09T04:17:33.410Z,63.6
2019-01-09T04:18:23.448Z,63.6
2019-01-09T04:19:13.207Z,63.6
2019-01-09T04:20:03.562Z,63.6
2019-01-09T04:20:53.352Z,63.6
2019-01-09T04:21:43.440Z,63.6
2019-01-09T04:22:34.259Z,63.6
2019-01-09T04:23:24.314Z,63.6
2019-01-09T04:24:14.116Z,63.6
2019-01-09T04:25:04.081Z,63.6
2019-01-09T04:25:54.258Z,63.6
2019-01-09T04:26:44.366Z,63.6
2019-01-09T04:27:32.947Z,63.6
2019-01-09T04:28:24.469Z,63.6
2019-01-09T04:29:14.723Z,63.6
2019-01-09T04:30:04.561Z,63.6
2019-01-09T04:30:54.883Z,63.5
2019-01-09T04:31:44.701Z,63.5
2019-01-09T04:32:34.250Z,63.6
2019-01-09T04:33:24.581Z,63.5
2019-01-09T04:34:14.594Z,63.5
2019-01-09T04:35:04.598Z,63.5
2019-01-09T04:35:54.999Z,63.5
2019-01-09T04:36:54.403Z,63.5
2019-01-09T04:37:34.703Z,63.5
2019-01-09T04:38:23.965Z,63.4
2019-01-09T04:39:14.824Z,63.4
2019-01-09T04:40:05.351Z,63.4
2019-01-09T04:40:54.667Z,63.4
2019-01-09T04:41:44.166Z,63.4
2019-01-09T04:42:35.373Z,63.4
2019-01-09T04:43:25.115Z,63.4
2019-01-09T04:44:15.149Z,63.4
2019-01-09T04:45:05.016Z,63.4
2019-01-09T05:02:25.677Z,63.3
2019-01-09T05:03:15.173Z,63.3
2019-01-09T05:04:06.112Z,63.3
2019-01-09T05:04:54.824Z,63.3
2019-01-09T05:05:46.016Z,63.3
2019-01-09T05:06:35.938Z,63.3
2019-01-09T05:07:26.324Z,63.3
2019-01-09T05:08:15.787Z,63.3
2019-01-09T05:09:06.391Z,63.3
2019-01-09T05:09:58.136Z,63.3
2019-01-09T05:10:46.504Z,63.2
2019-01-09T05:11:36.547Z,63.2
2019-01-09T05:12:26.624Z,63.2
2019-01-09T05:13:16.629Z,63.2
2019-01-09T05:14:06.436Z,63.2
2019-01-09T05:14:56.839Z,63.2
2019-01-09T05:15:46.841Z,63.2
2019-01-09T05:16:36.896Z,63.1
2019-01-09T05:17:26.991Z,63.1
2019-01-09T05:18:17.093Z,63.1
2019-01-09T05:19:07.131Z,63.1
2019-01-09T05:19:56.578Z,63.1
2019-01-09T05:20:46.674Z,63.1
2019-01-09T05:21:37.216Z,63.1
2019-01-09T05:22:26.428Z,63.1
2019-01-09T05:23:17.126Z,63.1
2019-01-09T05:24:06.893Z,63.1
2019-01-09T05:24:56.876Z,63.1
2019-01-09T05:25:47.768Z,63.1
2019-01-09T05:26:36.998Z,63.1
2019-01-09T05:27:27.340Z,63.1
2019-01-09T05:28:17.645Z,63.1
2019-01-09T05:29:07.737Z,63.1
2019-01-09T05:29:57.467Z,63.1
2019-01-09T05:30:47.573Z,63
2019-01-09T05:31:37.891Z,63.1
2019-01-09T05:32:27.684Z,63
2019-01-09T05:33:18.270Z,63
2019-01-09T05:34:07.837Z,63
2019-01-09T05:34:57.818Z,63
2019-01-09T05:35:47.885Z,63
2019-01-09T05:36:37.728Z,63
2019-01-09T05:37:28.037Z,63
2019-01-09T05:38:18.630Z,63
2019-01-09T05:39:08.479Z,63
2019-01-09T05:39:58.414Z,62.9
2019-01-09T05:40:48.231Z,62.9
2019-01-09T05:41:38.319Z,62.9
2019-01-09T05:42:28.909Z,62.9
2019-01-09T05:43:18.374Z,62.9
2019-01-09T05:44:08.469Z,62.9
2019-01-09T05:45:00.780Z,62.9
2019-01-09T05:45:48.038Z,62.9
2019-01-09T05:46:39.176Z,62.9
2019-01-09T05:47:28.990Z,62.9
2019-01-09T05:48:18.737Z,62.9
2019-01-09T05:49:09.088Z,62.9
2019-01-09T05:49:58.852Z,62.9
2019-01-09T05:50:49.546Z,62.9
2019-01-09T05:51:39.493Z,62.9
2019-01-09T05:52:28.503Z,62.9
2019-01-09T05:53:18.793Z,62.9
2019-01-09T05:54:09.416Z,62.9
2019-01-09T05:54:58.606Z,62.8
2019-01-09T05:55:49.285Z,62.8
2019-01-09T05:56:39.258Z,62.8
2019-01-09T05:57:29.586Z,62.8
2019-01-09T05:58:19.345Z,62.8
2019-01-09T05:59:09.978Z,62.8
2019-01-09T05:59:59.221Z,62.8
2019-01-09T06:00:49.810Z,62.8
2019-01-09T06:01:39.608Z,62.8
2019-01-09T06:02:31.530Z,62.8
2019-01-09T06:03:20.258Z,62.8
2019-01-09T06:04:10.403Z,62.8
2019-01-09T06:04:59.808Z,62.8
2019-01-09T06:05:49.595Z,62.8
2019-01-09T06:06:39.106Z,62.8
2019-01-09T06:07:30.276Z,62.7
2019-01-09T06:08:20.593Z,62.7
2019-01-09T06:09:10.391Z,62.7
2019-01-09T06:10:00.448Z,62.7
2019-01-09T06:10:50.302Z,62.7
2019-01-09T06:11:39.997Z,62.7
2019-01-09T06:12:29.773Z,62.7
2019-01-09T06:13:20.706Z,62.6
2019-01-09T06:14:10.760Z,62.7
2019-01-09T06:15:00.756Z,62.6
2019-01-09T06:15:51.082Z,62.7
2019-01-09T06:16:40.879Z,62.6
2019-01-09T06:17:30.927Z,62.6
2019-01-09T06:18:20.704Z,62.6
2019-01-09T06:19:10.227Z,62.6
2019-01-09T06:20:01.464Z,62.6
2019-01-09T06:20:50.877Z,62.6
2019-01-09T06:21:40.651Z,62.6
2019-01-09T06:22:31.564Z,62.6
2019-01-09T06:23:21.309Z,62.6
2019-01-09T06:24:11.342Z,62.6
2019-01-09T06:25:01.404Z,62.6
2019-01-09T06:25:51.813Z,62.6
2019-01-09T06:26:41.636Z,62.6
2019-01-09T06:27:31.879Z,62.6
2019-01-09T06:28:22.034Z,62.6
2019-01-09T06:29:11.716Z,62.5
2019-01-09T06:30:01.254Z,62.5
2019-01-09T06:30:51.804Z,62.5
2019-01-09T06:31:42.160Z,62.5
2019-01-09T06:32:32.172Z,62.5
2019-01-09T06:33:22.106Z,62.5
2019-01-09T06:34:11.534Z,62.5
2019-01-09T06:35:02.134Z,62.5
2019-01-09T06:35:51.792Z,62.4
2019-01-09T06:36:41.954Z,62.4
2019-01-09T06:37:32.772Z,62.4
2019-01-09T06:38:22.047Z,62.4
2019-01-09T06:39:12.075Z,62.4
2019-01-09T06:40:02.793Z,62.4
2019-01-09T06:40:51.780Z,62.4
2019-01-09T06:41:42.523Z,62.4
2019-01-09T06:42:32.303Z,62.4
2019-01-09T06:43:22.923Z,62.4
2019-01-09T06:44:12.760Z,62.4
2019-01-09T06:45:02.326Z,62.4
2019-01-09T06:45:52.875Z,62.4
2019-01-09T06:46:41.841Z,62.4
2019-01-09T06:47:32.912Z,62.4
2019-01-09T06:48:22.518Z,62.4
2019-01-09T06:49:13.013Z,62.4
2019-01-09T06:50:02.808Z,62.3
2019-01-09T06:50:53.507Z,62.3
2019-01-09T06:51:43.255Z,62.3
2019-01-09T06:52:33.225Z,62.3
2019-01-09T06:53:23.484Z,62.3
2019-01-09T06:54:13.406Z,62.3
2019-01-09T06:55:04.294Z,62.3
2019-01-09T06:55:53.854Z,62.3
2019-01-09T06:56:43.561Z,62.3
2019-01-09T06:57:33.023Z,62.3
2019-01-09T06:58:24.326Z,62.3
2019-01-09T06:59:12.838Z,62.3
2019-01-09T07:00:03.807Z,62.3
2019-01-09T07:00:52.676Z,62.3
2019-01-09T07:01:43.108Z,62.3
2019-01-09T07:02:33.368Z,62.3
2019-01-09T07:03:24.035Z,62.3
2019-01-09T07:04:13.543Z,62.3
2019-01-09T07:05:03.238Z,62.2
2019-01-09T07:05:53.420Z,62.2
2019-01-09T07:06:43.923Z,62.2
2019-01-09T07:07:40.090Z,62.2
2019-01-09T07:08:23.468Z,62.2
2019-01-09T07:09:14.632Z,62.2
2019-01-09T07:10:05.970Z,62.2
2019-01-09T07:10:54.460Z,62.2
2019-01-09T07:11:43.956Z,62.2
2019-01-09T07:12:34.572Z,62.1
2019-01-09T07:13:24.629Z,62.1
2019-01-09T07:14:14.719Z,62.1
2019-01-09T07:15:16.252Z,62.1
2019-01-09T07:15:54.528Z,62.1
2019-01-09T07:16:44.409Z,62.1
2019-01-09T07:17:34.612Z,62.1
2019-01-09T07:18:25.254Z,62.1
2019-01-09T07:19:15.025Z,62.1
2019-01-09T07:20:05.454Z,62.1
2019-01-09T07:20:54.844Z,62.1
2019-01-09T07:21:49.902Z,62.1
2019-01-09T07:22:34.424Z,62.1
2019-01-09T07:23:26.844Z,62.1
2019-01-09T07:24:15.168Z,62.1
2019-01-09T07:25:05.443Z,62.1
2019-01-09T07:25:55.197Z,62.1
2019-01-09T07:26:45.811Z,62
2019-01-09T07:27:35.589Z,62
2019-01-09T07:28:24.811Z,62
2019-01-09T07:29:15.402Z,62
2019-01-09T07:30:05.789Z,62
2019-01-09T07:30:55.797Z,62
2019-01-09T07:31:45.599Z,62
2019-01-09T07:32:35.623Z,62
2019-01-09T07:33:25.415Z,61.9
2019-01-09T07:34:15.474Z,61.9
2019-01-09T07:35:05.914Z,61.9
2019-01-09T07:35:55.865Z,61.9
2019-01-09T07:36:46.298Z,61.9
2019-01-09T07:37:45.604Z,61.9
2019-01-09T07:38:26.571Z,61.9
2019-01-09T07:39:16.348Z,61.9
2019-01-09T07:40:05.873Z,61.9
2019-01-09T07:40:56.005Z,61.9
2019-01-09T07:41:46.498Z,61.9
2019-01-09T07:42:36.636Z,61.9
2019-01-09T07:43:26.381Z,61.9
2019-01-09T07:44:16.160Z,61.9
2019-01-09T07:45:06.478Z,61.9
2019-01-09T07:45:57.155Z,61.9
2019-01-09T07:46:47.006Z,61.8
2019-01-09T07:47:37.208Z,61.9
2019-01-09T07:48:26.440Z,61.8
2019-01-09T07:49:17.048Z,61.8
2019-01-09T07:50:07.370Z,61.8
2019-01-09T07:50:57.163Z,61.8
2019-01-09T07:51:46.940Z,61.8
2019-01-09T07:52:36.984Z,61.8
2019-01-09T07:53:26.306Z,61.8
2019-01-09T07:54:17.450Z,61.8
2019-01-09T07:55:07.458Z,61.8
2019-01-09T07:55:56.925Z,61.8
2019-01-09T07:56:46.714Z,61.8
2019-01-09T07:57:36.611Z,61.8
2019-01-09T07:58:27.115Z,61.8
2019-01-09T07:59:17.690Z,61.8
2019-01-09T08:00:08.039Z,61.8
2019-01-09T08:00:57.059Z,61.8
2019-01-09T08:01:47.654Z,61.7
2019-01-09T08:02:37.753Z,61.7
2019-01-09T08:03:27.982Z,61.7
2019-01-09T08:04:17.480Z,61.7
2019-01-09T08:05:07.838Z,61.7
2019-01-09T08:05:57.964Z,61.7
2019-01-09T08:06:48.217Z,61.7
2019-01-09T08:07:37.699Z,61.7
2019-01-09T08:08:28.339Z,61.6
2019-01-09T08:09:17.867Z,61.7
2019-01-09T08:10:07.630Z,61.7
2019-01-09T08:10:58.502Z,61.6
2019-01-09T08:11:50.981Z,61.6
2019-01-09T08:12:38.314Z,61.6
2019-01-09T08:13:28.097Z,61.6
2019-01-09T08:14:18.714Z,61.6
2019-01-09T08:15:08.769Z,61.6
2019-01-09T08:15:59.084Z,61.6
2019-01-09T08:16:48.969Z,61.6
2019-01-09T08:17:38.692Z,61.6
2019-01-09T08:18:28.488Z,61.6
2019-01-09T08:19:18.486Z,61.6
2019-01-09T08:20:08.829Z,61.6
2019-01-09T08:21:08.511Z,61.6
2019-01-09T08:21:48.941Z,61.6
2019-01-09T08:22:39.554Z,61.5
2019-01-09T08:23:29.051Z,61.5
2019-01-09T08:24:19.273Z,61.5
2019-01-09T08:25:09.056Z,61.5
2019-01-09T08:25:59.768Z,61.5
2019-01-09T08:26:49.551Z,61.5
2019-01-09T08:27:39.911Z,61.5
2019-01-09T08:28:29.666Z,61.5
2019-01-09T08:29:19.158Z,61.5
2019-01-09T08:30:09.617Z,61.4
2019-01-09T08:30:59.840Z,61.4
2019-01-09T08:31:49.890Z,61.4
2019-01-09T08:32:39.775Z,61.4
2019-01-09T08:33:29.470Z,61.4
2019-01-09T08:34:20.083Z,61.4
2019-01-09T08:35:10.116Z,61.4
2019-01-09T08:36:00.153Z,61.4
2019-01-09T08:36:50.502Z,61.4
2019-01-09T08:37:40.327Z,61.4
2019-01-09T08:38:30.060Z,61.4
2019-01-09T08:39:19.844Z,61.4
2019-01-09T08:40:10.495Z,61.4
2019-01-09T08:41:00.285Z,61.4
2019-01-09T08:41:50.269Z,61.4
2019-01-09T08:42:40.073Z,61.4
2019-01-09T08:43:30.453Z,61.3
2019-01-09T08:44:20.169Z,61.3
2019-01-09T08:45:10.513Z,61.3
2019-01-09T08:46:00.009Z,61.3
2019-01-09T08:46:50.904Z,61.3
2019-01-09T08:47:40.982Z,61.3
2019-01-09T08:48:31.012Z,61.3
2019-01-09T08:49:20.804Z,61.3
2019-01-09T08:50:10.897Z,61.3
2019-01-09T08:51:00.606Z,61.3
2019-01-09T08:51:50.679Z,61.3
2019-01-09T08:52:40.591Z,61.3
2019-01-09T08:53:30.794Z,61.3
2019-01-09T08:54:21.484Z,61.3
2019-01-09T08:55:11.740Z,61.3
2019-01-09T08:56:01.787Z,61.3
2019-01-09T08:56:51.543Z,61.3
2019-01-09T08:57:41.351Z,61.3
2019-01-09T08:58:32.041Z,61.2
2019-01-09T08:59:21.266Z,61.2
2019-01-09T09:00:11.907Z,61.2
2019-01-09T09:01:01.583Z,61.2
2019-01-09T09:16:57.884Z,61.1
2019-01-09T09:17:47.865Z,61
2019-01-09T09:18:37.721Z,61.1
2019-01-09T09:19:28.606Z,61
2019-01-09T09:20:18.459Z,61
2019-01-09T09:21:08.420Z,61
2019-01-09T09:21:58.480Z,61
2019-01-09T09:22:47.969Z,61
2019-01-09T09:23:38.556Z,61
2019-01-09T09:24:28.442Z,61
2019-01-09T09:25:18.403Z,61
2019-01-09T09:26:09.002Z,61
2019-01-09T09:26:58.813Z,60.9
2019-01-09T09:27:47.734Z,60.9
2019-01-09T09:28:38.627Z,60.9
2019-01-09T09:29:28.688Z,60.9
2019-01-09T09:30:19.064Z,60.9
2019-01-09T09:31:08.852Z,60.9
2019-01-09T09:31:59.452Z,60.9
2019-01-09T09:32:48.791Z,60.9
2019-01-09T09:33:37.695Z,60.9
2019-01-09T09:34:28.527Z,60.9
2019-01-09T09:35:19.636Z,60.9
2019-01-09T09:36:09.136Z,60.9
2019-01-09T09:36:59.801Z,60.9
2019-01-09T09:37:49.274Z,60.9
2019-01-09T09:38:39.626Z,60.9
2019-01-09T09:39:29.929Z,60.9
2019-01-09T09:40:19.406Z,60.9
2019-01-09T09:41:09.741Z,60.8
2019-01-09T09:41:59.003Z,60.8
2019-01-09T09:42:49.595Z,60.8
2019-01-09T09:43:39.653Z,60.8
2019-01-09T09:44:30.251Z,60.8
2019-01-09T09:45:20.039Z,60.8
2019-01-09T09:46:09.846Z,60.8
2019-01-09T09:47:00.191Z,60.8
2019-01-09T09:47:50.211Z,60.8
2019-01-09T09:48:39.741Z,60.8
2019-01-09T09:49:30.308Z,60.8
2019-01-09T09:50:20.390Z,60.8
2019-01-09T09:51:09.730Z,60.8
2019-01-09T09:52:00.491Z,60.8
2019-01-09T09:52:50.011Z,60.8
2019-01-09T09:53:40.035Z,60.8
2019-01-09T09:54:31.022Z,60.7
2019-01-09T09:55:20.165Z,60.7
2019-01-09T09:56:10.470Z,60.7
2019-01-09T09:57:00.795Z,60.7
2019-01-09T09:57:50.950Z,60.7
2019-01-09T09:58:40.665Z,60.7
2019-01-09T09:59:31.276Z,60.7
2019-01-09T10:00:20.488Z,60.7
2019-01-09T10:01:10.800Z,60.7
2019-01-09T10:02:00.874Z,60.6
2019-01-09T10:02:50.980Z,60.6
2019-01-09T10:03:41.255Z,60.6
2019-01-09T10:04:31.310Z,60.6
2019-01-09T10:05:21.410Z,60.6
2019-01-09T10:06:10.874Z,60.6
2019-01-09T10:07:01.467Z,60.6
2019-01-09T10:07:50.967Z,60.6
2019-01-09T10:08:41.867Z,60.6
2019-01-09T10:09:31.382Z,60.6
2019-01-09T10:10:21.727Z,60.6
2019-01-09T10:11:11.597Z,60.6
2019-01-09T10:12:02.070Z,60.6
2019-01-09T10:12:51.049Z,60.6
2019-01-09T10:13:41.364Z,60.6
2019-01-09T10:14:31.417Z,60.5
2019-01-09T10:15:22.302Z,60.5
2019-01-09T10:16:11.545Z,60.5
2019-01-09T10:17:01.949Z,60.5
2019-01-09T10:17:52.206Z,60.5
2019-01-09T10:18:40.874Z,60.5
2019-01-09T10:19:32.026Z,60.5
2019-01-09T10:20:21.839Z,60.5
2019-01-09T10:21:12.149Z,60.5
2019-01-09T10:22:02.516Z,60.5
2019-01-09T10:22:52.816Z,60.4
2019-01-09T10:23:42.461Z,60.4
2019-01-09T10:24:32.631Z,60.4
2019-01-09T10:25:22.763Z,60.4
2019-01-09T10:26:11.914Z,60.4
2019-01-09T10:27:02.361Z,60.4
2019-01-09T10:27:52.978Z,60.4
2019-01-09T10:28:42.920Z,60.4
2019-01-09T10:29:32.695Z,60.4
2019-01-09T10:30:22.358Z,60.4
2019-01-09T10:31:12.260Z,60.4
2019-01-09T10:32:03.416Z,60.4
2019-01-09T10:32:53.038Z,60.4
2019-01-09T10:33:43.259Z,60.4
2019-01-09T10:34:33.321Z,60.4
2019-01-09T10:35:23.454Z,60.4
2019-01-09T10:36:13.488Z,60.4
2019-01-09T10:37:02.440Z,60.3
2019-01-09T10:37:53.818Z,60.3
2019-01-09T10:38:45.589Z,60.3
2019-01-09T10:39:33.910Z,60.3
2019-01-09T10:40:23.701Z,60.3
2019-01-09T10:41:13.220Z,60.3
2019-01-09T10:42:03.614Z,60.3
2019-01-09T10:42:53.049Z,60.3
2019-01-09T10:43:43.920Z,60.3
2019-01-09T10:44:36.102Z,60.3
2019-01-09T10:45:23.567Z,60.3
2019-01-09T10:46:14.144Z,60.3
2019-01-09T10:47:03.389Z,60.3
2019-01-09T10:47:53.989Z,60.3
2019-01-09T10:48:44.265Z,60.3
2019-01-09T10:49:34.106Z,60.3
2019-01-09T10:50:24.177Z,60.3
2019-01-09T10:51:13.214Z,60.3
2019-01-09T10:52:03.829Z,60.3
2019-01-09T10:52:54.254Z,60.2
2019-01-09T10:53:44.579Z,60.2
2019-01-09T10:54:34.112Z,60.2
2019-01-09T10:55:25.031Z,60.2
2019-01-09T10:56:13.979Z,60.2
2019-01-09T10:57:04.554Z,60.2
2019-01-09T10:57:54.329Z,60.2
2019-01-09T10:58:44.644Z,60.1
2019-01-09T10:59:34.692Z,60.1
2019-01-09T11:00:24.766Z,60.2
2019-01-09T11:01:14.511Z,60.1
2019-01-09T11:02:05.436Z,60.1
2019-01-09T11:02:54.923Z,60.1
2019-01-09T11:03:44.704Z,60.1
2019-01-09T11:04:35.381Z,60.1
2019-01-09T11:05:25.166Z,60.1
2019-01-09T11:06:17.913Z,60.1
2019-01-09T11:07:05.231Z,60.1
2019-01-09T11:07:55.623Z,60.1
2019-01-09T11:08:51.021Z,60.1
2019-01-09T11:09:35.383Z,60.1
2019-01-09T11:10:25.419Z,60.1
2019-01-09T11:11:15.186Z,60.1
2019-01-09T11:12:05.816Z,60.1
2019-01-09T11:12:56.133Z,60.1
2019-01-09T11:13:45.636Z,60
2019-01-09T11:14:35.703Z,60
2019-01-09T11:15:26.048Z,60
2019-01-09T11:16:15.815Z,60
2019-01-09T11:17:05.858Z,60
2019-01-09T11:17:55.925Z,60
2019-01-09T11:18:45.882Z,60
2019-01-09T11:19:35.760Z,60
2019-01-09T11:20:25.808Z,59.9
2019-01-09T11:21:16.416Z,59.9
2019-01-09T11:22:06.240Z,59.9
2019-01-09T11:22:56.533Z,59.9
2019-01-09T11:23:46.022Z,59.9
2019-01-09T11:24:36.444Z,59.9
2019-01-09T11:25:26.978Z,59.9
2019-01-09T11:26:18.262Z,59.9
2019-01-09T11:27:07.007Z,59.9
2019-01-09T11:27:56.622Z,59.9
2019-01-09T11:28:47.356Z,59.9
2019-01-09T11:29:37.258Z,59.9
2019-01-09T11:30:27.345Z,59.9
2019-01-09T11:31:17.079Z,59.9
2019-01-09T11:32:09.464Z,59.9
2019-01-09T11:32:56.472Z,59.9
2019-01-09T11:33:46.424Z,59.9
2019-01-09T11:34:37.298Z,59.9
2019-01-09T11:35:27.652Z,59.8
2019-01-09T11:36:17.674Z,59.8
2019-01-09T11:37:07.459Z,59.8
2019-01-09T11:37:57.515Z,59.8
2019-01-09T11:38:46.207Z,59.8
2019-01-09T11:39:37.094Z,59.8
2019-01-09T11:40:27.466Z,59.8
2019-01-09T11:41:17.493Z,59.8
2019-01-09T11:42:08.102Z,59.8
2019-01-09T11:42:57.873Z,59.8
2019-01-09T11:43:47.908Z,59.8
2019-01-09T11:44:37.843Z,59.8
2019-01-09T11:45:27.768Z,59.8
2019-01-09T11:46:17.798Z,59.8
2019-01-09T11:47:08.149Z,59.8
2019-01-09T11:47:57.556Z,59.8
2019-01-09T11:48:47.166Z,59.8
2019-01-09T11:49:38.411Z,59.7
2019-01-09T11:50:28.623Z,59.7
2019-01-09T11:51:17.900Z,59.7
2019-01-09T11:52:08.468Z,59.7
2019-01-09T11:52:58.248Z,59.7
2019-01-09T11:53:48.297Z,59.7
2019-01-09T11:54:38.643Z,59.7
2019-01-09T11:55:28.798Z,59.6
2019-01-09T11:56:19.038Z,59.7
2019-01-09T11:57:08.265Z,59.7
2019-01-09T11:57:58.594Z,59.6
2019-01-09T11:58:48.637Z,59.6
2019-01-09T11:59:38.510Z,59.6
2019-01-09T12:00:28.765Z,59.6
2019-01-09T12:01:18.820Z,59.6
2019-01-09T12:02:08.861Z,59.6
2019-01-09T12:02:58.667Z,59.6
2019-01-09T12:03:49.532Z,59.6
2019-01-09T12:04:38.922Z,59.6
2019-01-09T12:05:29.072Z,59.6
2019-01-09T12:06:19.257Z,59.6
2019-01-09T12:07:09.475Z,59.6
2019-01-09T12:07:59.233Z,59.6
2019-01-09T12:08:51.869Z,59.6
2019-01-09T12:09:39.350Z,59.6
2019-01-09T12:10:34.564Z,59.6
2019-01-09T12:11:19.777Z,59.5
2019-01-09T12:12:09.832Z,59.5
2019-01-09T12:12:59.590Z,59.5